Chadron Municipal Airport Chadron US
ICAO: KCDR
IATA: CDR
Category: Medium
Scheduled Services: No

Elevation: 3297 ft
TransAlt. 18000 ft.

Airport Communications:
ASOS:118.05
DENVER CNTR:127.95
COLUMBUS RDO:122.5
CTAF/UNICOM:122.8

KCDR Zoom In..

If Map Doesn't Load, Click Here

Runways:

(A) RW 02 length 5998 ft width 100 ft
ILS 110.90 / hdg 24

(B) RW 11 length 4400 ft width 75 ft
---- / hdg 114

(C) RW 20 length 5998 ft width 100 ft
---- / hdg 204

(D) RW 29 length 4400 ft width 75 ft
---- / hdg 294

Location; KCDR
Day. 24 / Time. 04.53 Zulu
* Altimeter: 29.91
* Temperature: 11° c. 51.8°f.
* Wind from: 020° Speed 14 kn with Gusts up to 19 kn.
Dewpoint: 08° c.
Visibility: 10 Statute Miles.
Clouds: Overcast 1100 ft.

KCDR 240453Z AUTO 02014G19KT 10SM OVC011 11/08 A2991 RMK AO2 SLP113 T01060078


Wind From 020°
Speed 14 kn.

 
 
jpsmedia.com for Web Design worldairports.se 2018   terms of use